createdAt,value
2019-04-23T00:01:29.520Z,7.40
2019-04-23T00:06:32.166Z,7.76
2019-04-23T00:11:32.529Z,7.71
2019-04-23T00:16:42.570Z,8.66
2019-04-23T00:21:55.084Z,9.14
2019-04-23T00:27:13.167Z,7.98
2019-04-23T00:32:10.337Z,7.61
2019-04-23T00:37:18.703Z,8.15
2019-04-23T00:42:25.886Z,9.17
2019-04-23T00:47:32.645Z,9.14
2019-04-23T00:57:40.610Z,8.10
2019-04-23T01:02:54.724Z,8.61
2019-04-23T01:07:50.026Z,9.81
2019-04-23T01:13:11.299Z,9.26
2019-04-23T01:18:20.314Z,8.68
2019-04-23T01:23:01.214Z,9.89
2019-04-23T01:28:36.742Z,10.59
2019-04-23T01:33:39.093Z,9.69
2019-04-23T01:38:57.126Z,9.89
2019-04-23T01:43:46.078Z,11.08
2019-04-23T01:49:07.746Z,9.76
2019-04-23T01:54:06.830Z,11.06
2019-04-23T01:59:10.830Z,9.61
2019-04-23T02:09:24.975Z,10.22
2019-04-23T02:14:46.321Z,10.18
2019-04-23T02:19:51.304Z,10.48
2019-04-23T02:25:01.875Z,10.88
2019-04-23T02:35:32.522Z,10.68
2019-04-23T02:45:39.495Z,10.98
2019-04-23T03:01:14.830Z,11.29
2019-04-23T03:06:10.208Z,10.94
2019-04-23T03:16:33.914Z,11.97
2019-04-23T03:21:33.393Z,11.64
2019-04-23T03:26:47.377Z,12.23
2019-04-23T03:37:00.682Z,11.89
2019-04-23T03:52:23.261Z,12.56
2019-04-23T04:02:39.942Z,12.49
2019-04-23T04:07:49.387Z,12.55
2019-04-23T04:12:36.046Z,12.44
2019-04-23T04:18:01.576Z,12.63
2019-04-23T04:28:14.628Z,13.19
2019-04-23T04:33:29.783Z,13.13
2019-04-23T04:38:36.391Z,13.21
2019-04-23T04:43:33.895Z,13.05
2019-04-23T04:48:44.913Z,13.62
2019-04-23T05:04:00.329Z,13.79
2019-04-23T05:09:17.138Z,14.22
2019-04-23T05:24:31.724Z,14.06
2019-04-23T05:29:32.500Z,13.96
2019-04-23T05:34:40.175Z,13.90
2019-04-23T05:39:54.535Z,13.58
2019-04-23T05:44:48.058Z,14.29
2019-04-23T05:50:00.827Z,17.39
2019-04-23T06:20:54.288Z,13.76
2019-04-23T06:25:57.345Z,14.77
2019-04-23T06:30:56.009Z,14.54
2019-04-23T06:35:57.263Z,14.97
2019-04-23T06:41:19.305Z,15.34
2019-04-23T06:46:23.017Z,14.59
2019-04-23T06:56:49.360Z,15.54
2019-04-23T07:01:53.225Z,18.59
2019-04-23T07:06:48.593Z,16.29
2019-04-23T07:11:55.278Z,14.47
2019-04-23T07:22:15.997Z,14.01
2019-04-23T07:27:14.876Z,13.21
2019-04-23T07:37:32.776Z,13.27
2019-04-23T07:42:35.356Z,14.30
2019-04-23T07:48:01.436Z,12.77
2019-04-23T07:58:10.564Z,13.09
2019-04-23T08:03:22.527Z,12.30
2019-04-23T08:08:13.432Z,12.51
2019-04-23T08:18:45.156Z,12.85
2019-04-23T08:28:59.568Z,11.55
2019-04-23T08:39:03.470Z,13.21
2019-04-23T08:44:15.612Z,10.95
2019-04-23T08:54:45.265Z,12.83
2019-04-23T09:00:00.386Z,10.73
2019-04-23T09:04:51.619Z,11.16
2019-04-23T09:09:56.661Z,10.95
2019-04-23T09:25:20.306Z,11.76
2019-04-23T09:30:14.617Z,13.10
2019-04-23T09:50:54.095Z,13.31
2019-04-23T09:55:51.338Z,14.47
2019-04-23T10:01:17.347Z,13.55
2019-04-23T10:05:57.139Z,10.96
2019-04-23T10:10:57.467Z,11.05
2019-04-23T10:16:06.403Z,15.02
2019-04-23T10:21:13.096Z,13.62
2019-04-23T10:26:21.739Z,13.80
2019-04-23T10:31:28.025Z,9.20
2019-04-23T10:36:38.218Z,19.93
2019-04-23T10:41:46.377Z,11.58
2019-04-23T10:47:15.208Z,13.56
2019-04-23T10:52:28.033Z,12.09
2019-04-23T10:57:33.022Z,12.40
2019-04-23T11:02:51.004Z,11.33
2019-04-23T11:07:42.564Z,8.76
2019-04-23T11:12:49.070Z,10.32
2019-04-23T11:17:52.248Z,14.40
2019-04-23T11:23:19.218Z,12.25
2019-04-23T11:28:27.920Z,8.80
2019-04-23T11:33:22.142Z,14.67
2019-04-23T11:43:48.571Z,13.03
2019-04-23T11:49:19.621Z,14.22
2019-04-23T11:54:01.204Z,12.63
2019-04-23T11:59:17.586Z,12.96
2019-04-23T12:09:36.953Z,16.37
2019-04-23T12:19:44.330Z,12.86
2019-04-23T12:29:46.215Z,16.57
2019-04-23T12:35:01.478Z,12.31
2019-04-23T12:55:36.312Z,14.76
2019-04-23T13:00:37.155Z,15.23
2019-04-23T13:05:34.197Z,11.32
2019-04-23T13:16:12.755Z,16.38
2019-04-23T13:21:43.234Z,13.68
2019-04-23T13:26:10.180Z,18.09
2019-04-23T13:31:21.758Z,19.35
2019-04-23T13:36:36.182Z,14.69
2019-04-23T13:41:39.781Z,17.35
2019-04-23T13:46:43.988Z,21.66
2019-04-23T13:52:15.969Z,23.44
2019-04-23T13:57:48.862Z,17.86
2019-04-23T14:02:19.626Z,13.91
2019-04-23T14:07:32.527Z,17.23
2019-04-23T14:22:59.973Z,17.74
2019-04-23T14:28:07.419Z,19.32
2019-04-23T14:33:11.765Z,18.59
2019-04-23T14:38:23.559Z,22.67
2019-04-23T14:43:16.565Z,21.78
2019-04-23T14:48:23.359Z,19.10
2019-04-23T14:53:33.388Z,22.60
2019-04-23T14:58:42.755Z,20.37
2019-04-23T15:09:09.037Z,22.05
2019-04-23T15:19:21.678Z,25.63
2019-04-23T15:27:35.965Z,21.30
2019-04-23T15:29:15.789Z,29.14
2019-04-23T15:34:23.210Z,22.91
2019-04-23T15:39:46.518Z,22.24
2019-04-23T15:44:55.334Z,22.76
2019-04-23T15:55:02.325Z,25.52
2019-04-23T16:00:15.988Z,21.21
2019-04-23T16:04:57.688Z,23.16
2019-04-23T16:10:29.560Z,24.11
2019-04-23T16:15:43.507Z,20.16
2019-04-23T16:20:58.472Z,29.81
2019-04-23T16:26:05.719Z,23.16
2019-04-23T16:31:00.009Z,21.79
2019-04-23T16:36:11.432Z,23.51
2019-04-23T16:41:15.494Z,22.28
2019-04-23T16:46:25.239Z,24.66
2019-04-23T16:51:29.609Z,24.70
2019-04-23T16:56:41.957Z,26.28
2019-04-23T17:01:52.375Z,22.20
2019-04-23T17:06:58.236Z,21.98
2019-04-23T17:17:08.360Z,21.47
2019-04-23T17:21:47.519Z,9.59
2019-04-23T20:38:54.824Z,49.47
2019-04-23T20:49:42.854Z,15.71
2019-04-23T20:59:54.474Z,17.27
2019-04-23T21:15:12.061Z,17.86
2019-04-23T21:25:38.870Z,17.35
2019-04-23T21:31:02.246Z,16.78
2019-04-23T21:35:55.453Z,15.65
2019-04-23T21:46:15.233Z,16.23
2019-04-23T21:56:20.972Z,16.91
2019-04-23T22:01:36.676Z,16.17
2019-04-23T22:06:46.093Z,16.26
2019-04-23T22:11:49.526Z,16.77
2019-04-23T22:21:59.650Z,16.43
2019-04-23T22:26:59.845Z,17.86
2019-04-23T22:32:08.911Z,16.86
2019-04-23T22:42:57.131Z,16.49
2019-04-23T22:57:58.722Z,16.83
2019-04-23T23:03:06.438Z,17.65
2019-04-23T23:08:07.835Z,16.78
2019-04-23T23:18:24.748Z,16.21
2019-04-23T23:23:34.387Z,16.93
2019-04-23T23:28:40.811Z,17.08
2019-04-23T23:33:42.991Z,18.39
2019-04-23T23:38:50.606Z,16.17
2019-04-23T23:44:28.454Z,16.95
2019-04-23T23:54:13.957Z,15.51
2019-04-23T23:59:26.999Z,15.89
